Time;durP1;ratioP1;P1;durP2;ratioP2;P2;SDS_P1;SDS_P2;PMS_P1;PMS_P2;Temp;Humidity;BMP_temperature;BMP_pressure;BME280_temperature;BME280_humidity;BME280_pressure;Samples;Min_cycle;Max_cycle;Signal;HPM_P1;HPM_P2
2021/08/29 00:01:41;;;;;;;11.48;7.00;;;;;;;13.28;77.40;100030.41;2178305;81;20951;-87
2021/08/29 00:04:42;;;;;;;10.38;6.35;;;;;;;13.24;77.35;100019.27;2174247;81;21057;-87
2021/08/29 00:07:43;;;;;;;10.18;6.87;;;;;;;13.21;77.29;100021.80;2170304;81;21551;-87
2021/08/29 00:10:45;;;;;;;13.90;7.03;;;;;;;13.20;77.24;100029.96;2150491;80;21054;-86
2021/08/29 00:13:46;;;;;;;10.50;6.30;;;;;;;13.15;77.17;100031.88;2163919;80;20978;-86
2021/08/29 00:16:48;;;;;;;12.07;6.87;;;;;;;13.12;77.38;100030.06;2171494;80;21034;-86
2021/08/29 00:19:50;;;;;;;12.85;6.78;;;;;;;13.07;77.36;100030.64;2131411;82;21021;-86
2021/08/29 00:22:52;;;;;;;13.43;7.42;;;;;;;13.03;77.26;100026.67;2129526;82;21065;-87
2021/08/29 00:25:53;;;;;;;11.57;6.40;;;;;;;12.96;77.27;100017.27;2141772;82;20993;-86
2021/08/29 00:28:54;;;;;;;10.50;6.62;;;;;;;12.91;77.15;100013.52;2145396;82;21027;-87
2021/08/29 00:31:55;;;;;;;12.65;7.62;;;;;;;12.84;77.14;100016.09;2128041;82;21470;-86
2021/08/29 00:34:57;;;;;;;13.50;7.35;;;;;;;12.78;77.43;100011.00;2156707;81;21125;-86
2021/08/29 00:37:58;;;;;;;16.42;6.67;;;;;;;12.74;77.46;100010.20;2153081;82;21073;-86
2021/08/29 00:40:59;;;;;;;11.45;6.35;;;;;;;12.73;77.46;100008.05;2145950;81;21061;-85
2021/08/29 00:44:02;;;;;;;12.37;6.75;;;;;;;12.68;77.33;100004.29;2146279;82;21521;-86
2021/08/29 00:47:08;;;;;;;15.13;6.25;;;;;;;12.66;77.19;100006.30;2150168;81;21445;-87
2021/08/29 00:50:10;;;;;;;9.70;5.67;;;;;;;12.58;77.39;100003.72;2150452;81;21017;-86
2021/08/29 00:53:20;;;;;;;9.58;5.62;;;;;;;12.55;77.53;100002.25;2150176;81;21065;-88
2021/08/29 00:56:23;;;;;;;9.10;6.28;;;;;;;12.52;77.56;100003.44;2149685;81;21019;-87
2021/08/29 00:59:26;;;;;;;10.82;5.75;;;;;;;12.51;77.57;100003.64;2142175;82;21593;-87
2021/08/29 01:02:28;;;;;;;10.15;5.87;;;;;;;12.47;77.49;99997.86;2145983;80;21027;-84
2021/08/29 01:05:43;;;;;;;13.65;6.28;;;;;;;12.43;77.43;100005.86;2151466;81;21022;-84
2021/08/29 01:09:02;;;;;;;9.60;6.15;;;;;;;12.39;77.45;100007.25;2145632;81;21032;-86
2021/08/29 01:12:06;;;;;;;8.73;5.55;;;;;;;12.36;77.75;100003.63;2142713;81;21033;-85
2021/08/29 01:15:19;;;;;;;6.00;5.28;;;;;;;12.30;77.61;100005.66;2149625;81;21077;-88
2021/08/29 01:18:24;;;;;;;9.15;6.25;;;;;;;12.25;77.70;100007.55;2139556;81;21017;-86
2021/08/29 01:21:33;;;;;;;7.85;5.72;;;;;;;12.24;78.30;100009.04;2167153;80;21036;-86
2021/08/29 01:24:37;;;;;;;9.50;6.17;;;;;;;12.24;78.43;100011.19;2155010;81;21800;-86
2021/08/29 01:27:59;;;;;;;7.00;5.35;;;;;;;12.25;78.68;100010.71;2143261;81;21016;-85
2021/08/29 01:31:03;;;;;;;13.30;5.47;;;;;;;12.22;78.47;100012.38;2129167;81;21008;-86
2021/08/29 01:34:08;;;;;;;6.55;5.20;;;;;;;12.18;78.60;100006.59;2157454;81;21064;-86
2021/08/29 01:37:11;;;;;;;13.83;5.87;;;;;;;12.19;78.63;100008.74;2172740;80;21039;-84
2021/08/29 01:40:14;;;;;;;9.53;5.15;;;;;;;12.19;78.85;100006.09;2171242;80;21631;-86
2021/08/29 01:43:17;;;;;;;6.15;5.10;;;;;;;12.19;78.89;100010.08;2145438;81;21500;-86
2021/08/29 01:46:19;;;;;;;9.53;5.33;;;;;;;12.21;78.85;100014.72;2160894;81;21475;-84
2021/08/29 01:49:22;;;;;;;13.38;5.95;;;;;;;12.19;79.02;100006.94;2162458;81;21033;-86
2021/08/29 01:52:24;;;;;;;12.20;5.97;;;;;;;12.18;78.93;100012.42;2154996;81;20999;-85
2021/08/29 01:55:29;;;;;;;6.90;5.30;;;;;;;12.13;79.16;100020.11;2171444;81;21021;-86
2021/08/29 01:58:41;;;;;;;11.03;6.17;;;;;;;12.10;79.31;100010.14;2178588;79;21491;-85
2021/08/29 02:01:43;;;;;;;8.30;5.90;;;;;;;12.09;79.43;100014.33;2155287;81;21005;-87
2021/08/29 02:04:46;;;;;;;8.40;6.03;;;;;;;12.10;79.48;100014.13;2175653;81;20998;-86
2021/08/29 02:07:52;;;;;;;9.73;5.78;;;;;;;12.07;79.40;100010.50;2146877;81;21047;-85
2021/08/29 02:11:00;;;;;;;7.65;5.60;;;;;;;12.09;79.71;100005.84;2135314;81;21064;-88
2021/08/29 02:14:08;;;;;;;11.93;6.45;;;;;;;12.12;79.78;100003.33;2122698;82;21023;-86
2021/08/29 02:17:12;;;;;;;8.85;6.20;;;;;;;12.15;79.88;100012.27;2153240;81;21551;-85
2021/08/29 02:20:18;;;;;;;13.13;6.55;;;;;;;12.16;79.84;100004.61;2188874;80;21013;-87
2021/08/29 02:23:23;;;;;;;10.80;6.65;;;;;;;12.18;79.93;100003.94;2198704;80;21130;-87
2021/08/29 02:26:25;;;;;;;9.08;7.42;;;;;;;12.22;80.08;99999.07;2181800;80;21000;-86
2021/08/29 02:29:29;;;;;;;9.13;7.20;;;;;;;12.25;80.07;100002.73;2171985;80;21027;-88
2021/08/29 02:32:31;;;;;;;10.32;6.83;;;;;;;12.24;80.07;99999.22;2193369;79;21489;-84
2021/08/29 02:35:32;;;;;;;12.33;7.37;;;;;;;12.26;80.11;100000.38;2192381;80;21038;-86
2021/08/29 02:38:36;;;;;;;14.33;7.05;;;;;;;12.25;80.11;99998.74;2184522;80;22399;-85
2021/08/29 02:41:38;;;;;;;11.15;7.53;;;;;;;12.25;80.12;99997.41;2190928;79;21098;-86
2021/08/29 02:44:41;;;;;;;13.93;7.00;;;;;;;12.26;80.14;99999.05;2189732;80;21026;-86
2021/08/29 02:47:42;;;;;;;11.73;6.33;;;;;;;12.25;80.15;99994.75;2177995;80;21030;-87
2021/08/29 02:50:47;;;;;;;8.25;6.05;;;;;;;12.22;80.07;99989.77;2182656;80;20974;-86
2021/08/29 02:53:50;;;;;;;13.78;8.05;;;;;;;12.21;80.14;99992.94;2185898;80;21007;-86
2021/08/29 02:56:56;;;;;;;11.55;7.47;;;;;;;12.19;80.09;99988.32;2187172;80;21085;-87
2021/08/29 02:59:58;;;;;;;10.78;7.58;;;;;;;12.18;80.22;99989.30;2172787;80;21036;-85
2021/08/29 03:03:00;;;;;;;12.78;8.58;;;;;;;12.20;80.34;99983.82;2197187;80;21508;-87
2021/08/29 03:06:01;;;;;;;17.90;8.85;;;;;;;12.22;80.48;99985.77;2185783;80;21840;-85
2021/08/29 03:09:03;;;;;;;15.83;7.75;;;;;;;12.22;80.61;99977.80;2186600;80;20964;-86
2021/08/29 03:12:08;;;;;;;17.30;10.13;;;;;;;12.24;80.63;99982.44;2180963;80;21153;-86
2021/08/29 03:15:17;;;;;;;12.60;9.43;;;;;;;12.26;80.69;99975.11;2139002;80;21694;-86
2021/08/29 03:18:19;;;;;;;13.22;9.45;;;;;;;12.21;80.73;99977.48;2188318;80;21039;-85
2021/08/29 03:21:22;;;;;;;13.80;8.53;;;;;;;12.20;80.86;99972.67;2170206;80;21559;-86
2021/08/29 03:24:24;;;;;;;13.03;9.58;;;;;;;12.21;80.88;99974.82;2176958;80;21501;-86
2021/08/29 03:27:26;;;;;;;12.73;9.78;;;;;;;12.23;80.95;99967.50;2181336;80;21001;-85
2021/08/29 03:30:27;;;;;;;17.62;9.58;;;;;;;12.21;81.04;99973.49;2181709;80;21135;-85
2021/08/29 03:33:29;;;;;;;15.15;9.90;;;;;;;12.22;81.10;99961.83;2165269;80;21098;-87
2021/08/29 03:36:34;;;;;;;13.48;10.13;;;;;;;12.21;81.17;99953.54;2161825;80;21105;-87
2021/08/29 03:39:37;;;;;;;15.32;11.40;;;;;;;12.24;81.22;99954.00;2141557;80;21030;-86
2021/08/29 03:42:40;;;;;;;13.32;9.90;;;;;;;12.25;81.31;99953.52;2177544;80;21065;-86
2021/08/29 03:45:43;;;;;;;13.48;9.38;;;;;;;12.22;81.19;99955.18;2157275;81;21504;-85
2021/08/29 03:48:45;;;;;;;15.98;10.58;;;;;;;12.21;81.28;99952.21;2180266;80;21134;-86
2021/08/29 03:51:49;;;;;;;12.13;9.90;;;;;;;12.19;81.20;99948.90;2196309;80;21018;-85
2021/08/29 03:54:52;;;;;;;18.65;10.58;;;;;;;12.19;81.18;99953.73;2173269;80;21093;-85
2021/08/29 03:57:56;;;;;;;17.57;12.00;;;;;;;12.20;81.23;99951.39;2119722;82;21018;-85
2021/08/29 04:00:59;;;;;;;19.55;12.23;;;;;;;12.21;81.33;99952.21;2122318;83;21056;-86
2021/08/29 04:04:01;;;;;;;19.45;12.33;;;;;;;12.23;81.42;99951.53;2127451;82;21026;-86
2021/08/29 04:07:06;;;;;;;18.77;12.20;;;;;;;12.25;81.49;99954.84;2163286;80;21050;-85
2021/08/29 04:10:10;;;;;;;16.45;12.05;;;;;;;12.24;81.58;99950.52;2167104;80;21073;-86
2021/08/29 04:13:14;;;;;;;18.80;11.73;;;;;;;12.22;81.71;99952.52;2183869;80;21066;-86
2021/08/29 04:16:34;;;;;;;15.48;11.20;;;;;;;12.22;81.82;99953.38;2185306;79;20983;-85
2021/08/29 04:19:42;;;;;;;16.60;12.18;;;;;;;12.23;81.92;99955.52;2165286;80;21473;-87
2021/08/29 04:22:44;;;;;;;17.17;11.88;;;;;;;12.27;81.99;99956.80;2169665;79;21018;-85
2021/08/29 04:25:46;;;;;;;17.20;11.88;;;;;;;12.29;82.01;99958.27;2183291;80;21089;-87
2021/08/29 04:28:48;;;;;;;18.25;12.13;;;;;;;12.31;82.00;99952.28;2177120;80;21023;-87
2021/08/29 04:31:51;;;;;;;17.70;12.37;;;;;;;12.33;81.96;99956.06;2188973;80;21062;-86
2021/08/29 04:34:54;;;;;;;14.45;11.53;;;;;;;12.36;82.01;99956.21;2185032;80;21054;-87
2021/08/29 04:37:59;;;;;;;14.95;11.68;;;;;;;12.37;82.07;99957.38;2183216;80;21030;-87
2021/08/29 04:41:01;;;;;;;15.53;11.75;;;;;;;12.40;82.05;99958.84;2165281;80;21017;-86
2021/08/29 04:44:03;;;;;;;15.35;12.20;;;;;;;12.41;82.10;99957.31;2164172;80;21009;-85
2021/08/29 04:47:05;;;;;;;19.10;12.13;;;;;;;12.42;82.12;99953.67;2175615;80;21517;-86
2021/08/29 04:50:08;;;;;;;16.70;11.83;;;;;;;12.43;82.17;99963.30;2174923;80;21050;-85
2021/08/29 04:53:10;;;;;;;16.52;12.85;;;;;;;12.46;82.31;99960.77;2173191;80;21465;-87
2021/08/29 04:56:11;;;;;;;15.95;12.73;;;;;;;12.47;82.35;99961.94;2181599;80;20981;-87
2021/08/29 04:59:13;;;;;;;16.35;12.80;;;;;;;12.51;82.44;99971.19;2158142;81;21456;-84
2021/08/29 05:02:16;;;;;;;16.65;12.60;;;;;;;12.54;82.47;99971.33;2176768;80;21061;-85
2021/08/29 05:05:17;;;;;;;16.65;12.80;;;;;;;12.58;82.56;99971.78;2181006;79;21014;-87
2021/08/29 05:08:18;;;;;;;16.48;12.60;;;;;;;12.62;82.59;99972.58;2169231;80;21034;-86
2021/08/29 05:11:21;;;;;;;18.30;13.55;;;;;;;12.67;82.55;99977.33;2153054;81;20973;-86
2021/08/29 05:14:22;;;;;;;17.27;13.00;;;;;;;12.72;82.55;99981.09;2172590;80;20990;-85
2021/08/29 05:17:24;;;;;;;19.25;13.20;;;;;;;12.79;82.56;99984.69;2202265;79;20990;-84
2021/08/29 05:20:26;;;;;;;15.55;12.70;;;;;;;12.85;82.58;99982.30;2188927;80;21079;-85
2021/08/29 05:23:46;;;;;;;16.17;13.43;;;;;;;12.91;82.53;99982.89;2191994;79;21477;-86
2021/08/29 05:26:49;;;;;;;16.50;13.15;;;;;;;12.97;82.54;99992.80;2155208;80;21597;-88
2021/08/29 05:29:50;;;;;;;16.10;12.70;;;;;;;13.04;82.53;99982.25;2188533;80;21078;-86
2021/08/29 05:32:51;;;;;;;16.27;13.53;;;;;;;13.08;82.47;99984.84;2173156;80;21021;-85
2021/08/29 05:35:53;;;;;;;15.78;12.33;;;;;;;13.17;82.56;99991.70;2189816;80;20981;-86
2021/08/29 05:38:54;;;;;;;13.93;11.78;;;;;;;13.22;82.42;99986.66;2183250;80;21058;-85
2021/08/29 05:41:57;;;;;;;14.07;12.58;;;;;;;13.28;82.39;99995.25;2168231;80;21031;-84
2021/08/29 05:45:10;;;;;;;16.48;12.37;;;;;;;13.32;82.26;99996.55;2131270;82;21022;-86
2021/08/29 05:48:12;;;;;;;15.90;12.58;;;;;;;13.38;82.19;99996.30;2120650;83;21052;-86
2021/08/29 05:51:13;;;;;;;16.73;12.35;;;;;;;13.41;82.13;99996.75;2115687;83;21543;-85
2021/08/29 05:54:17;;;;;;;14.38;11.73;;;;;;;13.48;82.23;99996.80;2127687;82;21014;-85
2021/08/29 05:57:19;;;;;;;16.67;12.78;;;;;;;13.62;82.24;99992.45;2114477;83;21070;-86
2021/08/29 06:00:20;;;;;;;15.13;11.88;;;;;;;13.72;82.10;99992.97;2122882;83;21044;-85
2021/08/29 06:03:23;;;;;;;15.20;11.65;;;;;;;13.85;82.06;99991.77;2131351;81;21489;-87
2021/08/29 06:06:24;;;;;;;14.50;11.55;;;;;;;13.98;81.84;99988.89;2116328;82;20982;-86
2021/08/29 06:09:26;;;;;;;13.78;11.12;;;;;;;14.07;81.84;99993.07;2121571;82;21622;-87
2021/08/29 06:12:28;;;;;;;13.80;11.00;;;;;;;14.26;81.71;99986.25;2098766;82;21101;-86
2021/08/29 06:15:29;;;;;;;13.80;10.55;;;;;;;14.46;81.64;99986.39;2119573;83;21101;-84
2021/08/29 06:18:31;;;;;;;16.85;12.05;;;;;;;14.61;81.40;99977.77;2103552;84;21031;-86
2021/08/29 06:21:32;;;;;;;15.48;11.28;;;;;;;14.79;81.30;99976.77;2190875;80;21036;-87
2021/08/29 06:24:33;;;;;;;15.15;11.68;;;;;;;14.88;80.88;99977.42;2190018;80;21018;-87
2021/08/29 06:27:53;;;;;;;13.35;10.85;;;;;;;15.01;80.74;99974.00;2191541;80;21525;-85
2021/08/29 06:30:59;;;;;;;13.50;10.23;;;;;;;15.10;80.63;99983.48;2157012;79;21015;-86
2021/08/29 06:34:18;;;;;;;11.35;10.15;;;;;;;15.22;80.32;99980.53;2179565;80;21058;-86
2021/08/29 06:37:20;;;;;;;13.43;10.43;;;;;;;15.29;80.04;99979.73;2194204;80;20987;-87
2021/08/29 06:40:21;;;;;;;11.55;10.30;;;;;;;15.38;79.88;99979.88;2178666;80;21040;-86
2021/08/29 06:43:22;;;;;;;10.48;9.35;;;;;;;15.48;79.69;99981.64;2180970;80;21026;-86
2021/08/29 06:46:26;;;;;;;12.10;9.83;;;;;;;15.63;79.68;99979.63;2187678;80;21285;-87
2021/08/29 06:49:46;;;;;;;12.05;9.58;;;;;;;15.88;79.64;99973.22;2182719;80;21031;-87
2021/08/29 06:53:06;;;;;;;11.57;9.60;;;;;;;16.06;79.07;99973.93;2195570;80;21030;-86
2021/08/29 06:56:15;;;;;;;13.93;9.13;;;;;;;16.14;78.54;99971.05;2122042;80;21058;-86
2021/08/29 06:59:18;;;;;;;10.68;8.08;;;;;;;16.22;78.08;99963.33;2171594;80;21061;-87
2021/08/29 07:02:21;;;;;;;11.30;8.10;;;;;;;16.25;77.80;99964.77;2180435;80;21054;-88
2021/08/29 07:05:25;;;;;;;10.45;8.03;;;;;;;16.30;77.64;99967.14;2178915;80;21081;-86
2021/08/29 07:08:27;;;;;;;10.23;8.23;;;;;;;16.44;77.63;99964.42;2175064;80;21079;-86
2021/08/29 07:11:28;;;;;;;9.80;8.20;;;;;;;16.72;77.57;99955.59;2181690;80;20959;-88
2021/08/29 07:14:48;;;;;;;9.20;8.23;;;;;;;16.99;76.94;99959.56;2186795;80;21043;-87
2021/08/29 07:17:49;;;;;;;10.78;7.60;;;;;;;17.22;76.60;99952.34;2190436;80;20999;-87
2021/08/29 07:20:52;;;;;;;11.15;8.03;;;;;;;17.37;76.18;99956.91;2179024;80;21023;-86
2021/08/29 07:24:05;;;;;;;8.83;7.92;;;;;;;17.53;75.70;99954.75;2054925;81;21103;-85
2021/08/29 07:27:13;;;;;;;10.13;7.67;;;;;;;17.69;74.98;99950.20;2141474;82;21009;-86
2021/08/29 07:30:19;;;;;;;9.25;7.17;;;;;;;17.86;74.86;99951.87;2048636;82;21066;-86
2021/08/29 07:33:28;;;;;;;8.78;7.87;;;;;;;18.05;74.65;99949.55;2142736;81;21019;-86
2021/08/29 07:36:37;;;;;;;8.60;7.60;;;;;;;18.19;74.04;99946.22;2147385;81;21035;-85
2021/08/29 07:39:42;;;;;;;8.63;7.72;;;;;;;18.45;72.54;99944.32;2154308;81;21001;-86
2021/08/29 07:42:44;;;;;;;9.23;6.92;;;;;;;18.52;72.63;99947.22;2153623;81;21038;-89
2021/08/29 07:45:45;;;;;;;10.28;6.67;;;;;;;18.63;72.74;99949.69;2148276;82;21064;-86
2021/08/29 07:48:47;;;;;;;8.60;7.30;;;;;;;18.84;72.55;99948.96;2142013;80;21039;-86
2021/08/29 07:51:48;;;;;;;9.23;7.08;;;;;;;19.00;72.03;99951.05;2138991;82;21004;-87
2021/08/29 07:54:57;;;;;;;8.88;7.60;;;;;;;19.08;71.46;99947.23;2143850;82;21040;-87
2021/08/29 07:58:18;;;;;;;9.55;7.30;;;;;;;19.24;71.38;99944.73;2141881;81;21477;-85
2021/08/29 08:01:20;;;;;;;9.68;7.30;;;;;;;19.33;70.84;99943.08;2151567;81;21057;-87
2021/08/29 08:04:21;;;;;;;15.32;7.80;;;;;;;19.39;70.85;99946.19;2132362;82;20970;-86
2021/08/29 08:07:29;;;;;;;8.98;6.90;;;;;;;19.42;70.16;99941.16;2138371;82;21007;-85
2021/08/29 08:10:49;;;;;;;8.35;6.80;;;;;;;19.41;70.08;99945.45;2151345;82;21071;-85
2021/08/29 08:13:52;;;;;;;7.35;6.65;;;;;;;19.50;69.72;99950.79;2140169;82;21011;-87
2021/08/29 08:16:54;;;;;;;7.78;6.45;;;;;;;19.55;69.21;99950.92;2159864;81;21474;-87
2021/08/29 08:19:57;;;;;;;9.20;6.67;;;;;;;19.59;68.71;99955.31;2142185;81;21031;-85
2021/08/29 08:22:58;;;;;;;8.40;6.20;;;;;;;19.63;68.42;99955.17;2147706;80;21522;-86
2021/08/29 08:26:02;;;;;;;9.63;6.47;;;;;;;19.70;68.21;99954.56;2180869;80;21081;-86
2021/08/29 08:29:22;;;;;;;9.08;6.80;;;;;;;19.52;67.25;99950.05;2169720;80;21030;-86
2021/08/29 08:32:41;;;;;;;7.45;6.40;;;;;;;19.35;67.59;99947.18;2173138;79;21027;-87
2021/08/29 08:36:01;;;;;;;9.80;7.30;;;;;;;19.33;67.40;99947.11;2192133;80;21082;-86
2021/08/29 08:39:06;;;;;;;8.08;6.42;;;;;;;19.32;67.57;99950.33;2177637;80;21038;-88
2021/08/29 08:42:16;;;;;;;7.87;6.35;;;;;;;19.28;66.87;99952.34;2188084;79;21328;-87
2021/08/29 08:45:38;;;;;;;8.45;6.12;;;;;;;19.23;66.60;99952.52;2182673;80;21098;-86
2021/08/29 08:48:43;;;;;;;7.95;6.05;;;;;;;19.16;67.01;99947.73;2099658;80;21027;-87
2021/08/29 08:52:08;;;;;;;8.70;6.47;;;;;;;19.13;66.79;99944.69;2183540;80;21115;-86
2021/08/29 08:55:14;;;;;;;7.80;6.80;;;;;;;19.18;66.60;99938.11;2099110;79;21051;-88
2021/08/29 08:58:39;;;;;;;8.28;6.50;;;;;;;19.28;66.80;99938.90;2184475;80;21023;-87
2021/08/29 09:01:59;;;;;;;9.40;6.55;;;;;;;19.43;66.50;99939.32;2181094;80;21046;-86
2021/08/29 09:05:17;;;;;;;8.88;6.53;;;;;;;19.49;65.66;99937.05;2017216;86;20983;-87
2021/08/29 09:08:20;;;;;;;7.53;5.78;;;;;;;19.72;65.54;99935.50;2144506;80;21066;-87
2021/08/29 09:11:21;;;;;;;8.25;5.45;;;;;;;19.92;65.64;99933.30;2179222;80;20994;-86
2021/08/29 09:14:44;;;;;;;5.50;4.97;;;;;;;20.15;64.75;99931.14;2189181;80;21469;-86
2021/08/29 09:17:48;;;;;;;7.60;6.45;;;;;;;20.32;63.64;99933.95;2186876;80;21061;-86
2021/08/29 09:20:50;;;;;;;6.78;5.00;;;;;;;20.50;64.08;99932.48;2189184;80;21073;-87
2021/08/29 09:23:53;;;;;;;5.47;4.53;;;;;;;20.64;63.38;99926.84;2147714;81;21010;-87
2021/08/29 09:27:12;;;;;;;7.05;4.87;;;;;;;20.56;63.01;99930.75;2167043;81;21117;-87
2021/08/29 09:30:17;;;;;;;8.05;5.30;;;;;;;20.46;59.26;99932.65;2168052;81;21007;-88
2021/08/29 09:33:19;;;;;;;5.58;4.42;;;;;;;20.23;61.64;99929.98;2173770;81;21038;-86
2021/08/29 09:36:30;;;;;;;5.12;4.42;;;;;;;20.12;62.05;99929.73;2179092;81;21073;-87
2021/08/29 09:39:50;;;;;;;7.90;5.72;;;;;;;20.27;62.44;99924.40;2170053;80;21555;-85
2021/08/29 09:43:04;;;;;;;5.62;4.58;;;;;;;20.54;61.89;99926.12;2125089;81;20997;-86
2021/08/29 09:46:08;;;;;;;7.67;5.08;;;;;;;20.89;62.12;99929.25;2164907;81;21046;-86
2021/08/29 09:49:31;;;;;;;6.40;5.08;;;;;;;21.27;58.82;99923.25;2169493;81;21000;-87
2021/08/29 09:52:40;;;;;;;5.62;4.30;;;;;;;20.98;60.86;99927.30;2180743;79;21577;-86
2021/08/29 09:55:52;;;;;;;5.80;4.67;;;;;;;21.40;60.90;99927.55;2173781;81;21548;-86
2021/08/29 09:59:12;;;;;;;5.67;4.42;;;;;;;21.72;60.70;99925.16;2168848;81;21129;-86
2021/08/29 10:02:31;;;;;;;6.03;5.00;;;;;;;22.07;59.44;99923.53;2168012;81;21114;-87
2021/08/29 10:05:35;;;;;;;5.90;4.67;;;;;;;21.71;57.51;99925.69;2169596;81;21809;-86
2021/08/29 10:08:44;;;;;;;6.80;4.92;;;;;;;21.61;59.00;99926.05;2160128;81;20976;-87
2021/08/29 10:11:47;;;;;;;7.47;4.42;;;;;;;21.73;58.61;99921.38;2170808;80;21046;-86
2021/08/29 10:14:49;;;;;;;6.03;4.65;;;;;;;21.79;56.23;99919.05;2172090;81;21005;-87
2021/08/29 10:18:04;;;;;;;5.37;4.50;;;;;;;21.71;57.29;99920.29;2124193;81;21069;-86
2021/08/29 10:21:29;;;;;;;4.73;4.00;;;;;;;21.22;57.60;99919.11;2158518;81;21120;-87
2021/08/29 10:24:34;;;;;;;6.75;4.25;;;;;;;20.97;58.12;99912.70;2144472;81;21034;-87
2021/08/29 10:27:44;;;;;;;3.80;3.37;;;;;;;21.12;57.12;99918.91;2121173;82;21493;-85
2021/08/29 10:31:09;;;;;;;5.15;4.20;;;;;;;21.16;57.91;99909.29;2151544;82;21576;-87
2021/08/29 10:34:13;;;;;;;4.70;4.22;;;;;;;21.24;57.57;99902.16;2124670;81;21035;-86
2021/08/29 10:37:14;;;;;;;4.35;3.75;;;;;;;21.38;57.64;99898.66;2148337;81;21097;-87
2021/08/29 10:40:23;;;;;;;3.75;3.30;;;;;;;21.20;56.63;99896.44;2147731;82;21043;-86
2021/08/29 10:43:35;;;;;;;3.62;3.33;;;;;;;21.15;57.71;99895.52;2151745;81;20990;-86
2021/08/29 10:46:53;;;;;;;3.52;3.20;;;;;;;21.00;57.21;99891.98;2156191;81;21045;-87
2021/08/29 10:50:19;;;;;;;4.45;3.00;;;;;;;20.90;56.97;99895.32;2156124;81;21033;-88
2021/08/29 10:53:34;;;;;;;3.58;2.77;;;;;;;20.93;56.91;99886.75;2152866;81;21125;-86
2021/08/29 10:56:38;;;;;;;4.08;2.92;;;;;;;20.98;57.46;99886.03;2146262;82;21071;-86
2021/08/29 10:59:49;;;;;;;3.17;2.87;;;;;;;20.97;57.06;99885.73;2139974;82;21032;-86
2021/08/29 11:02:52;;;;;;;3.58;3.27;;;;;;;20.90;56.93;99885.88;2142398;81;20992;-86
2021/08/29 11:05:56;;;;;;;3.17;2.80;;;;;;;20.74;56.76;99882.59;2057147;82;21110;-86
2021/08/29 11:09:36;;;;;;;3.35;2.65;;;;;;;20.63;56.44;99877.52;2145232;81;21529;-87
2021/08/29 11:12:40;;;;;;;3.42;2.80;;;;;;;20.34;56.40;99882.01;2140564;82;21007;-86
2021/08/29 11:15:43;;;;;;;3.80;3.40;;;;;;;20.33;57.30;99879.84;2149075;81;21045;-86
2021/08/29 11:19:07;;;;;;;3.72;3.40;;;;;;;20.45;57.24;99878.47;2141014;81;20985;-85
2021/08/29 11:22:30;;;;;;;3.72;2.85;;;;;;;20.51;56.71;99878.05;2139321;82;21031;-87
2021/08/29 11:25:50;;;;;;;3.52;2.87;;;;;;;20.33;56.79;99877.15;2157754;81;21015;-87
2021/08/29 11:29:24;;;;;;;2.80;2.50;;;;;;;20.27;57.26;99875.41;2056184;81;21024;-86
2021/08/29 11:32:34;;;;;;;2.60;2.40;;;;;;;20.37;57.24;99871.56;2145203;82;21068;-86
2021/08/29 11:35:51;;;;;;;3.45;2.60;;;;;;;20.43;57.15;99868.98;2135830;81;21049;-86
2021/08/29 11:39:00;;;;;;;3.30;2.98;;;;;;;20.37;57.19;99872.09;2144005;82;21001;-86
2021/08/29 11:42:18;;;;;;;3.40;3.05;;;;;;;20.22;57.40;99863.70;2153053;82;21535;-85
2021/08/29 11:45:23;;;;;;;3.45;3.00;;;;;;;19.98;57.95;99866.39;2150850;82;21470;-87
2021/08/29 11:48:26;;;;;;;3.98;3.20;;;;;;;19.80;58.13;99872.72;2148406;81;21497;-86
2021/08/29 11:51:34;;;;;;;3.20;2.90;;;;;;;19.72;58.43;99866.33;2146574;82;21562;-86
2021/08/29 11:54:37;;;;;;;3.47;3.17;;;;;;;19.70;58.27;99862.52;2156879;81;20987;-86
2021/08/29 11:57:51;;;;;;;3.47;3.17;;;;;;;19.70;58.42;99862.52;2140717;81;21500;-85
2021/08/29 12:01:04;;;;;;;4.80;3.20;;;;;;;19.67;58.24;99859.48;2139687;82;21037;-87
2021/08/29 12:04:08;;;;;;;3.42;3.12;;;;;;;19.68;58.55;99863.80;2154181;81;21069;-87
2021/08/29 12:07:14;;;;;;;3.45;3.15;;;;;;;19.73;59.24;99869.30;2118970;82;21079;-87
2021/08/29 12:10:35;;;;;;;2.98;2.60;;;;;;;19.72;58.65;99872.25;2146749;81;21571;-86
2021/08/29 12:13:57;;;;;;;3.22;2.77;;;;;;;19.70;59.01;99871.94;2134149;82;22380;-87
2021/08/29 12:17:07;;;;;;;4.22;3.15;;;;;;;19.66;59.08;99869.95;2147849;82;21075;-86
2021/08/29 12:20:10;;;;;;;3.02;2.72;;;;;;;19.63;58.86;99873.90;2148839;80;21023;-86
2021/08/29 12:23:21;;;;;;;3.72;3.40;;;;;;;19.62;59.18;99879.50;2100352;82;21039;-85
2021/08/29 12:26:29;;;;;;;3.33;3.02;;;;;;;19.63;59.18;99879.28;2157099;81;21091;-86
2021/08/29 12:29:33;;;;;;;3.10;2.90;;;;;;;19.63;59.13;99877.94;2175805;81;21039;-84
2021/08/29 12:32:35;;;;;;;3.42;2.75;;;;;;;19.66;59.07;99869.43;2157683;81;21005;-86
2021/08/29 12:35:38;;;;;;;2.58;2.37;;;;;;;19.66;58.92;99867.27;2154303;81;21002;-87
2021/08/29 12:38:39;;;;;;;4.67;2.60;;;;;;;19.73;59.05;99872.53;2156272;81;21556;-85
2021/08/29 12:41:43;;;;;;;3.92;3.15;;;;;;;19.81;58.91;99864.11;2175777;81;21026;-86
2021/08/29 12:44:47;;;;;;;3.62;2.77;;;;;;;19.91;58.95;99869.21;2173601;79;21030;-86
2021/08/29 12:47:48;;;;;;;4.05;2.55;;;;;;;20.05;58.95;99865.77;2162815;80;21038;-86
2021/08/29 12:50:56;;;;;;;4.50;2.83;;;;;;;20.10;58.96;99866.38;2165646;81;21017;-87
2021/08/29 12:54:00;;;;;;;3.25;2.95;;;;;;;20.18;59.10;99863.33;2165979;81;21033;-87
2021/08/29 12:57:04;;;;;;;3.10;2.80;;;;;;;20.30;58.97;99862.81;2149604;81;21045;-87
2021/08/29 13:00:07;;;;;;;3.37;3.08;;;;;;;20.41;58.99;99855.73;2162732;81;22182;-87
2021/08/29 13:03:09;;;;;;;3.55;2.80;;;;;;;20.49;58.36;99858.06;2161897;81;21065;-87
2021/08/29 13:06:10;;;;;;;3.35;2.80;;;;;;;20.64;58.48;99860.80;2160078;81;21315;-85
2021/08/29 13:09:12;;;;;;;3.17;2.62;;;;;;;20.78;57.96;99856.80;2166151;79;21006;-85
2021/08/29 13:12:29;;;;;;;3.67;2.67;;;;;;;20.71;57.31;99861.50;2179690;80;21038;-86
2021/08/29 13:15:31;;;;;;;3.62;3.10;;;;;;;20.73;57.19;99856.70;2160653;81;21481;-86
2021/08/29 13:18:33;;;;;;;3.27;2.98;;;;;;;20.70;56.99;99854.48;2189824;81;21005;-86
2021/08/29 13:21:41;;;;;;;2.92;2.72;;;;;;;20.69;56.93;99855.52;2174120;79;20974;-85
2021/08/29 13:24:45;;;;;;;2.95;2.70;;;;;;;20.70;57.14;99843.70;2150544;80;21568;-86
2021/08/29 13:27:50;;;;;;;3.62;2.80;;;;;;;20.76;56.88;99840.04;2181584;80;21021;-85
2021/08/29 13:31:08;;;;;;;3.83;2.90;;;;;;;20.74;56.80;99842.15;2162702;80;21021;-87
2021/08/29 13:34:09;;;;;;;3.00;2.70;;;;;;;20.75;56.63;99843.27;2173669;80;21516;-86
2021/08/29 13:37:12;;;;;;;3.20;2.90;;;;;;;20.83;56.71;99851.48;2179892;80;21030;-86
2021/08/29 13:40:16;;;;;;;3.08;2.80;;;;;;;20.85;56.58;99848.03;2148403;80;21511;-87
2021/08/29 13:43:25;;;;;;;3.22;2.90;;;;;;;20.90;56.66;99841.39;2134094;82;21098;-86
2021/08/29 13:46:28;;;;;;;3.35;2.95;;;;;;;21.01;57.02;99841.86;2146865;80;21570;-86
2021/08/29 13:49:29;;;;;;;4.50;2.87;;;;;;;21.04;56.48;99835.98;2147452;80;21532;-86
2021/08/29 13:52:37;;;;;;;3.52;3.22;;;;;;;20.92;56.36;99829.84;2151993;81;21115;-88
2021/08/29 13:55:41;;;;;;;5.42;3.10;;;;;;;20.80;56.45;99827.17;2122384;82;21511;-87
2021/08/29 13:58:42;;;;;;;3.33;3.02;;;;;;;20.76;56.26;99828.72;2166271;80;21441;-87
2021/08/29 14:01:44;;;;;;;5.53;2.95;;;;;;;20.74;56.96;99830.02;2130904;82;21030;-87
2021/08/29 14:04:46;;;;;;;2.95;2.75;;;;;;;20.68;56.70;99828.28;2163002;80;21021;-86
2021/08/29 14:07:47;;;;;;;3.90;3.27;;;;;;;20.63;56.89;99832.23;2147794;80;21066;-88
2021/08/29 14:10:49;;;;;;;3.27;2.98;;;;;;;20.59;56.96;99831.89;2176896;80;20986;-88
2021/08/29 14:13:51;;;;;;;3.80;3.50;;;;;;;20.60;57.41;99824.91;2175744;80;21496;-85
2021/08/29 14:16:53;;;;;;;3.42;3.12;;;;;;;20.51;57.18;99830.89;2175113;79;21049;-86
2021/08/29 14:19:54;;;;;;;4.90;3.55;;;;;;;20.46;57.30;99832.13;2153228;81;21459;-85
2021/08/29 14:22:55;;;;;;;5.03;3.60;;;;;;;20.42;57.64;99833.67;2158646;80;21039;-86
2021/08/29 14:25:56;;;;;;;4.10;3.35;;;;;;;20.28;57.50;99837.97;2171581;81;21084;-87
2021/08/29 14:28:58;;;;;;;3.70;3.40;;;;;;;20.26;57.61;99837.91;2168154;80;20994;-86